Skip Navigation LinksHome page > Tools > METAR decoder Skip Navigation Links

METAR decoder

Settings

METAR

Chicago O'Hare Intl, Chicago

For information only: do not use for flight planning or navigation.
Latest weather
Observation time Thursday, June 21, 2018 4:23 PM CDT
Local time Thursday, June 21, 2018 4:52 PM CDT
Flight conditions Instrument Meteorological Conditions
Winds
Wind direction East (80°)
Wind speed 12 mph
Visibility 5 mi.
Present weather mist
Sky condition
Ceiling 800 ft. overcast
Cloud layer overcast 800 ft.
Temperature 66°F
Dewpoint 62°F
Altimeter 29.76 in.Hg
Derived measurements
Relative humidity 87%
Density altitude 1571 ft.
Remarks
Automated weather observing station with precipitation discriminator.
Ceiling.
METAR KORD 212123Z 08010KT 5SM BR OVC008 19/17 A2976 RMK AO2 CIG 007V011 T01890167

InnerDrive.Weather 4.0.6615.0 Release CLR 4.0.30319.42000
Copyright ©2018 Inner Drive Technology. All rights reserved. Portions Copyright ©1986-2018 David Braverman.

Find weather

Site navigation


Skip Navigation Links

Place info

Page info

PayPal - The safer, easier way to pay online!

Return home.

Copyright ©2018 Inner Drive Technology. Purveyors of fine, hand-crafted computer software. Page printed 2018-06-21T21:52:14 UTC.